createdAt,value
2018-11-13T00:01:25.892Z,51.15
2018-11-13T00:03:54.482Z,51.65
2018-11-13T00:06:23.129Z,52.30
2018-11-13T00:08:51.694Z,51.53
2018-11-13T00:11:20.317Z,50.73
2018-11-13T00:13:48.814Z,53.25
2018-11-13T00:16:17.356Z,47.25
2018-11-13T00:18:45.912Z,50.88
2018-11-13T00:21:14.444Z,52.62
2018-11-13T00:23:43.010Z,55.63
2018-11-13T00:26:11.618Z,66.95
2018-11-13T00:28:40.156Z,64.40
2018-11-13T00:31:08.705Z,70.08
2018-11-13T00:33:37.227Z,62.43
2018-11-13T00:36:05.792Z,70.25
2018-11-13T00:38:34.350Z,67.30
2018-11-13T00:41:02.887Z,79.17
2018-11-13T00:43:31.438Z,71.47
2018-11-13T00:46:00.047Z,76.05
2018-11-13T00:48:28.989Z,77.55
2018-11-13T00:50:57.576Z,85.55
2018-11-13T00:53:26.135Z,67.10
2018-11-13T00:55:54.705Z,71.05
2018-11-13T00:58:23.263Z,72.47
2018-11-13T01:00:51.860Z,71.60
2018-11-13T01:03:20.402Z,69.70
2018-11-13T01:05:48.961Z,68.67
2018-11-13T01:08:17.513Z,65.25
2018-11-13T01:10:46.060Z,70.50
2018-11-13T01:13:14.603Z,71.42
2018-11-13T01:15:43.140Z,72.00
2018-11-13T01:18:11.720Z,65.85
2018-11-13T01:20:40.301Z,69.97
2018-11-13T01:23:08.856Z,66.47
2018-11-13T01:25:37.412Z,65.12
2018-11-13T01:28:06.262Z,67.05
2018-11-13T01:30:37.750Z,66.82
2018-11-13T01:33:06.389Z,68.07
2018-11-13T01:35:34.944Z,69.17
2018-11-13T01:38:03.611Z,76.85
2018-11-13T01:40:32.164Z,70.05
2018-11-13T01:43:00.699Z,71.25
2018-11-13T01:45:29.217Z,68.28
2018-11-13T01:47:57.820Z,76.25
2018-11-13T01:50:26.338Z,64.85
2018-11-13T01:52:54.905Z,65.92
2018-11-13T01:55:23.444Z,65.00
2018-11-13T01:57:51.974Z,75.05
2018-11-13T02:00:21.844Z,71.05
2018-11-13T02:02:51.664Z,73.60
2018-11-13T02:05:21.373Z,64.07
2018-11-13T02:07:50.494Z,65.65
2018-11-13T02:10:19.370Z,69.53
2018-11-13T02:12:48.472Z,68.62
2018-11-13T02:15:17.621Z,64.80
2018-11-13T02:17:46.187Z,70.78
2018-11-13T02:20:16.694Z,63.50
2018-11-13T02:22:45.271Z,68.22
2018-11-13T02:25:15.173Z,71.40
2018-11-13T02:27:43.973Z,67.37
2018-11-13T02:30:14.824Z,68.25
2018-11-13T02:32:44.044Z,69.00
2018-11-13T02:35:12.926Z,69.20
2018-11-13T02:37:41.529Z,70.90
2018-11-13T02:40:10.129Z,66.25
2018-11-13T02:42:39.200Z,65.47
2018-11-13T02:45:11.589Z,67.95
2018-11-13T02:47:40.621Z,68.90
2018-11-13T02:50:11.830Z,68.20
2018-11-13T02:52:40.419Z,78.00
2018-11-13T02:55:11.061Z,66.82
2018-11-13T02:57:39.806Z,67.30
2018-11-13T03:00:10.415Z,68.55
2018-11-13T03:02:38.981Z,75.15
2018-11-13T03:05:09.367Z,72.42
2018-11-13T03:07:38.286Z,65.08
2018-11-13T03:10:08.245Z,69.58
2018-11-13T03:12:36.838Z,73.10
2018-11-13T03:15:06.265Z,75.62
2018-11-13T03:17:34.979Z,73.62
2018-11-13T03:20:03.759Z,70.83
2018-11-13T03:22:32.319Z,68.70
2018-11-13T03:25:00.881Z,73.87
2018-11-13T03:27:29.428Z,72.20
2018-11-13T03:29:58.030Z,77.65
2018-11-13T03:32:26.730Z,75.32
2018-11-13T03:34:59.295Z,75.32
2018-11-13T03:37:27.883Z,77.62
2018-11-13T03:39:56.438Z,73.60
2018-11-13T03:42:24.980Z,68.45
2018-11-13T03:44:53.511Z,75.50
2018-11-13T03:47:22.081Z,72.72
2018-11-13T03:49:50.649Z,73.87
2018-11-13T03:52:19.208Z,80.07
2018-11-13T03:54:47.757Z,73.85
2018-11-13T03:57:16.307Z,75.10
2018-11-13T03:59:44.844Z,79.25
2018-11-13T04:02:13.410Z,76.62
2018-11-13T04:04:41.931Z,74.87
2018-11-13T04:07:10.452Z,81.55
2018-11-13T04:09:39.003Z,85.35
2018-11-13T04:12:07.568Z,74.92
2018-11-13T04:14:36.154Z,76.45
2018-11-13T04:17:05.578Z,79.37
2018-11-13T04:19:34.187Z,62.98
2018-11-13T04:22:03.871Z,72.72
2018-11-13T04:24:32.884Z,78.75
2018-11-13T04:27:02.086Z,72.10
2018-11-13T04:29:30.950Z,73.35
2018-11-13T04:31:59.540Z,72.55
2018-11-13T04:34:28.097Z,75.75
2018-11-13T04:36:56.649Z,77.90
2018-11-13T04:39:25.180Z,72.27
2018-11-13T04:41:53.724Z,71.65
2018-11-13T04:44:22.262Z,66.53
2018-11-13T04:46:50.806Z,77.45
2018-11-13T04:49:19.346Z,62.98
2018-11-13T04:51:47.962Z,81.63
2018-11-13T04:54:16.493Z,68.37
2018-11-13T04:56:45.098Z,69.32
2018-11-13T04:59:13.641Z,75.85
2018-11-13T05:01:42.200Z,77.53
2018-11-13T05:04:10.759Z,78.72
2018-11-13T05:06:39.421Z,73.47
2018-11-13T05:09:08.191Z,73.90
2018-11-13T05:11:36.809Z,76.25
2018-11-13T05:14:05.475Z,77.67
2018-11-13T05:16:34.028Z,72.45
2018-11-13T05:19:02.577Z,77.47
2018-11-13T05:21:31.187Z,71.80
2018-11-13T05:23:59.729Z,77.70
2018-11-13T05:26:28.277Z,80.45
2018-11-13T05:28:57.099Z,69.25
2018-11-13T05:31:25.737Z,74.70
2018-11-13T05:33:54.316Z,78.45
2018-11-13T05:36:22.942Z,79.53
2018-11-13T05:38:51.468Z,74.70
2018-11-13T05:41:20.015Z,82.22
2018-11-13T05:43:48.562Z,68.55
2018-11-13T05:46:17.120Z,79.27
2018-11-13T05:48:45.655Z,78.37
2018-11-13T05:51:14.228Z,80.45
2018-11-13T05:53:42.758Z,86.55
2018-11-13T05:56:11.316Z,82.75
2018-11-13T05:58:40.017Z,81.72
2018-11-13T06:01:08.768Z,78.30
2018-11-13T06:03:38.235Z,79.35
2018-11-13T06:06:07.022Z,86.22
2018-11-13T06:08:35.644Z,83.92
2018-11-13T06:11:04.160Z,81.55
2018-11-13T06:13:32.705Z,76.65
2018-11-13T06:16:01.236Z,84.50
2018-11-13T06:18:29.787Z,79.35
2018-11-13T06:20:58.341Z,73.90
2018-11-13T06:23:26.914Z,74.97
2018-11-13T06:25:55.479Z,76.33
2018-11-13T06:28:24.013Z,72.55
2018-11-13T06:30:52.533Z,77.32
2018-11-13T06:33:21.064Z,75.70
2018-11-13T06:35:49.636Z,72.72
2018-11-13T06:38:18.162Z,71.37
2018-11-13T06:40:46.714Z,74.55
2018-11-13T06:43:15.257Z,75.62
2018-11-13T06:45:43.783Z,76.15
2018-11-13T06:48:12.326Z,84.30
2018-11-13T06:50:40.843Z,77.97
2018-11-13T06:53:09.358Z,89.05
2018-11-13T06:55:39.750Z,80.83
2018-11-13T06:58:08.288Z,81.67
2018-11-13T07:00:36.867Z,78.17
2018-11-13T07:03:05.507Z,80.90
2018-11-13T07:05:34.093Z,82.33
2018-11-13T07:08:02.735Z,78.00
2018-11-13T07:10:31.338Z,98.95
2018-11-13T07:13:00.133Z,86.78
2018-11-13T07:15:29.927Z,92.55
2018-11-13T07:18:00.976Z,84.45
2018-11-13T07:20:30.930Z,79.25
2018-11-13T07:22:59.497Z,83.85
2018-11-13T07:25:28.163Z,83.15
2018-11-13T07:27:59.345Z,74.37
2018-11-13T07:30:28.423Z,77.53
2018-11-13T07:32:57.016Z,86.35
2018-11-13T07:35:25.671Z,78.67
2018-11-13T07:37:58.290Z,73.10
2018-11-13T07:40:26.901Z,74.40
2018-11-13T07:42:55.682Z,75.55
2018-11-13T07:45:24.334Z,76.62
2018-11-13T07:47:53.389Z,76.30
2018-11-13T07:50:29.254Z,80.57
2018-11-13T07:52:57.918Z,76.15
2018-11-13T07:55:26.458Z,80.83
2018-11-13T07:57:55.045Z,81.40
2018-11-13T08:00:24.759Z,85.72
2018-11-13T08:02:54.697Z,82.88
2018-11-13T08:05:23.519Z,77.22
2018-11-13T08:07:52.290Z,80.83
2018-11-13T08:10:20.890Z,78.10
2018-11-13T08:12:49.481Z,73.17
2018-11-13T08:15:18.722Z,77.40
2018-11-13T08:17:47.262Z,79.17
2018-11-13T08:20:16.404Z,80.20
2018-11-13T08:22:45.175Z,80.10
2018-11-13T08:25:13.777Z,80.30
2018-11-13T08:27:42.729Z,76.90
2018-11-13T08:30:13.841Z,83.37
2018-11-13T08:32:42.856Z,72.90
2018-11-13T08:35:11.502Z,68.25
2018-11-13T08:37:40.134Z,77.53
2018-11-13T08:40:11.260Z,72.78
2018-11-13T08:42:39.872Z,72.87
2018-11-13T08:45:09.194Z,65.75
2018-11-13T08:47:37.774Z,67.03
2018-11-13T08:50:08.715Z,80.83
2018-11-13T08:52:37.207Z,75.12
2018-11-13T08:55:06.397Z,69.50
2018-11-13T08:57:35.461Z,67.50
2018-11-13T09:00:04.598Z,65.10
2018-11-13T09:02:33.152Z,69.05
2018-11-13T09:05:01.747Z,63.78
2018-11-13T09:07:30.243Z,64.37
2018-11-13T09:09:58.798Z,61.50
2018-11-13T09:12:27.426Z,61.55
2018-11-13T09:14:55.901Z,60.25
2018-11-13T09:17:24.433Z,59.60
2018-11-13T09:19:52.965Z,52.23
2018-11-13T09:22:21.528Z,49.63
2018-11-13T09:24:50.068Z,52.67
2018-11-13T09:27:18.620Z,48.55
2018-11-13T09:29:47.213Z,41.80
2018-11-13T09:32:15.708Z,49.38
2018-11-13T09:34:44.281Z,41.83
2018-11-13T09:37:12.896Z,43.87
2018-11-13T09:39:41.451Z,42.88
2018-11-13T09:42:09.995Z,40.08
2018-11-13T09:44:38.580Z,41.20
2018-11-13T09:47:07.176Z,35.92
2018-11-13T09:49:35.759Z,38.78
2018-11-13T09:52:04.662Z,38.13
2018-11-13T09:54:33.494Z,46.00
2018-11-13T09:57:02.051Z,40.50
2018-11-13T09:59:30.606Z,41.83
2018-11-13T10:01:59.408Z,36.65
2018-11-13T10:04:28.221Z,39.67
2018-11-13T10:06:56.374Z,42.53
2018-11-13T10:09:24.881Z,50.12
2018-11-13T10:11:53.469Z,41.30
2018-11-13T10:14:22.015Z,41.18
2018-11-13T10:16:50.549Z,43.87
2018-11-13T10:19:19.138Z,38.65
2018-11-13T10:21:47.713Z,46.08
2018-11-13T10:24:16.379Z,45.85
2018-11-13T10:26:45.002Z,40.60
2018-11-13T10:29:13.544Z,46.50
2018-11-13T10:31:42.047Z,51.95
2018-11-13T10:34:10.621Z,44.70
2018-11-13T10:36:39.426Z,44.13
2018-11-13T10:39:09.551Z,43.48
2018-11-13T10:41:38.131Z,43.40
2018-11-13T10:44:06.730Z,47.60
2018-11-13T10:46:35.826Z,47.73
2018-11-13T10:49:04.484Z,55.30
2018-11-13T10:51:33.130Z,48.60
2018-11-13T10:54:01.767Z,56.37
2018-11-13T10:56:30.430Z,55.48
2018-11-13T10:58:58.859Z,53.00
2018-11-13T11:01:32.604Z,64.05
2018-11-13T11:04:07.405Z,68.17
2018-11-13T11:06:35.980Z,68.83
2018-11-13T11:09:06.640Z,65.65
2018-11-13T11:11:35.264Z,77.75
2018-11-13T11:14:04.132Z,69.35
2018-11-13T11:16:32.413Z,70.85
2018-11-13T11:19:01.216Z,83.47
2018-11-13T11:21:29.690Z,83.12
2018-11-13T11:23:58.252Z,76.82
2018-11-13T11:26:26.837Z,82.97
2018-11-13T11:28:55.372Z,78.97
2018-11-13T11:31:23.920Z,88.60
2018-11-13T11:33:52.486Z,92.00
2018-11-13T11:36:21.035Z,87.92
2018-11-13T11:38:49.661Z,96.65
2018-11-13T11:41:18.185Z,105.67
2018-11-13T11:43:46.716Z,103.25
2018-11-13T11:46:15.273Z,107.22
2018-11-13T11:48:43.784Z,111.47
2018-11-13T11:51:12.292Z,104.67
2018-11-13T11:53:40.898Z,109.52
2018-11-13T11:56:09.381Z,114.10
2018-11-13T11:58:37.910Z,113.12
2018-11-13T12:01:06.447Z,112.12
2018-11-13T12:03:35.002Z,100.67
2018-11-13T12:06:03.544Z,104.87
2018-11-13T12:08:32.155Z,109.95
2018-11-13T12:11:00.702Z,102.55
2018-11-13T12:13:29.294Z,101.00
2018-11-13T12:15:57.902Z,112.52
2018-11-13T12:18:26.495Z,113.83
2018-11-13T12:20:55.031Z,112.25
2018-11-13T12:23:23.628Z,104.83
2018-11-13T12:25:52.324Z,97.27
2018-11-13T12:28:20.791Z,102.62
2018-11-13T12:30:49.344Z,95.92
2018-11-13T12:33:18.225Z,97.53
2018-11-13T12:35:46.788Z,104.20
2018-11-13T12:38:15.320Z,89.65
2018-11-13T12:40:43.941Z,101.53
2018-11-13T12:43:12.462Z,93.60
2018-11-13T12:45:41.077Z,94.47
2018-11-13T12:48:11.178Z,86.10
2018-11-13T12:50:45.017Z,86.47
2018-11-13T12:53:13.558Z,87.05
2018-11-13T12:55:42.245Z,84.95
2018-11-13T12:58:10.781Z,87.78
2018-11-13T13:00:39.340Z,85.20
2018-11-13T13:03:07.877Z,94.42
2018-11-13T13:05:36.451Z,83.10
2018-11-13T13:08:05.077Z,85.35
2018-11-13T13:10:33.673Z,92.65
2018-11-13T13:13:02.236Z,87.10
2018-11-13T13:15:30.847Z,79.17
2018-11-13T13:17:59.409Z,89.10
2018-11-13T13:20:27.945Z,73.30
2018-11-13T13:22:57.060Z,80.80
2018-11-13T13:25:25.752Z,83.65
2018-11-13T13:27:54.298Z,92.95
2018-11-13T13:30:24.983Z,79.20
2018-11-13T13:32:53.574Z,85.92
2018-11-13T13:36:08.442Z,74.37
2018-11-13T13:38:38.279Z,86.65
2018-11-13T13:41:07.077Z,89.45
2018-11-13T13:43:36.000Z,85.80
2018-11-13T13:46:04.576Z,93.90
2018-11-13T13:48:33.201Z,83.07
2018-11-13T13:51:01.749Z,87.50
2018-11-13T13:53:33.334Z,96.02
2018-11-13T13:56:01.892Z,176.50
2018-11-13T13:58:30.425Z,90.62
2018-11-13T14:00:59.208Z,95.95
2018-11-13T14:03:27.567Z,96.15
2018-11-13T14:05:56.214Z,83.27
2018-11-13T14:08:24.696Z,87.97
2018-11-13T14:10:53.243Z,90.60
2018-11-13T14:13:21.763Z,91.50
2018-11-13T14:15:50.406Z,92.97
2018-11-13T14:18:18.952Z,66.22
2018-11-13T14:20:47.540Z,72.60
2018-11-13T14:23:16.119Z,67.82
2018-11-13T14:25:44.680Z,61.15
2018-11-13T14:28:13.273Z,66.47
2018-11-13T14:30:41.820Z,50.35
2018-11-13T14:33:11.539Z,52.80
2018-11-13T14:35:40.185Z,61.13
2018-11-13T14:38:08.652Z,58.78
2018-11-13T14:40:39.705Z,56.60
2018-11-13T14:43:08.550Z,48.30
2018-11-13T14:45:37.089Z,40.67
2018-11-13T14:48:06.009Z,56.45
2018-11-13T14:50:35.830Z,41.73
2018-11-13T14:53:04.583Z,39.83
2018-11-13T14:55:34.676Z,25.62
2018-11-13T14:58:03.962Z,29.80
2018-11-13T15:00:33.652Z,23.50
2018-11-13T15:03:03.315Z,23.47
2018-11-13T15:05:32.573Z,24.52
2018-11-13T15:08:04.363Z,52.33
2018-11-13T15:10:41.153Z,53.95
2018-11-13T15:13:10.334Z,56.20
2018-11-13T15:15:38.902Z,65.65
2018-11-13T15:18:07.833Z,42.38
2018-11-13T15:20:36.436Z,48.00
2018-11-13T15:23:06.016Z,36.05
2018-11-13T15:25:34.641Z,44.70
2018-11-13T15:28:03.191Z,58.15
2018-11-13T15:30:33.077Z,60.17
2018-11-13T15:33:07.873Z,51.70
2018-11-13T15:35:36.455Z,72.15
2018-11-13T15:38:05.603Z,80.60
2018-11-13T15:40:34.152Z,67.75
2018-11-13T15:43:02.694Z,53.48
2018-11-13T15:45:31.265Z,48.87
2018-11-13T15:48:01.099Z,55.38
2018-11-13T15:50:30.952Z,35.03
2018-11-13T15:52:59.553Z,39.98
2018-11-13T15:55:28.172Z,38.30
2018-11-13T15:57:57.205Z,35.50
2018-11-13T16:00:32.039Z,42.80
2018-11-13T16:03:02.075Z,41.73
2018-11-13T16:05:42.098Z,40.80
2018-11-13T16:08:11.001Z,38.67
2018-11-13T16:10:39.639Z,35.03
2018-11-13T16:13:08.433Z,33.28
2018-11-13T16:15:37.099Z,39.23
2018-11-13T16:18:07.028Z,42.10
2018-11-13T16:20:35.582Z,38.30
2018-11-13T16:23:04.188Z,38.95
2018-11-13T16:25:32.732Z,38.70
2018-11-13T16:28:01.272Z,35.68
2018-11-13T16:30:34.201Z,33.20
2018-11-13T16:33:02.662Z,44.20
2018-11-13T16:35:31.901Z,31.02
2018-11-13T16:38:01.770Z,33.10
2018-11-13T16:40:31.308Z,43.33
2018-11-13T16:43:00.044Z,50.30
2018-11-13T16:45:29.732Z,50.17
2018-11-13T16:47:59.075Z,44.03
2018-11-13T16:50:43.059Z,50.43
2018-11-13T16:53:11.611Z,34.90
2018-11-13T16:55:45.719Z,35.75
2018-11-13T16:58:15.268Z,36.88
2018-11-13T17:00:44.038Z,33.60
2018-11-13T17:03:12.534Z,41.90
2018-11-13T17:05:41.109Z,49.20
2018-11-13T17:08:10.015Z,45.10
2018-11-13T17:10:40.499Z,48.38
2018-11-13T17:13:09.092Z,37.80
2018-11-13T17:15:37.808Z,36.73
2018-11-13T17:18:06.771Z,43.08
2018-11-13T17:20:35.351Z,49.48
2018-11-13T17:23:03.944Z,45.65
2018-11-13T17:25:34.113Z,42.27
2018-11-13T17:28:02.666Z,42.27
2018-11-13T17:30:32.443Z,42.40
2018-11-13T17:33:02.151Z,48.25
2018-11-13T17:35:31.365Z,32.50
2018-11-13T17:38:00.744Z,30.75
2018-11-13T17:40:30.681Z,32.53
2018-11-13T17:43:00.593Z,30.62
2018-11-13T17:45:33.416Z,35.25
2018-11-13T17:48:01.965Z,30.92
2018-11-13T17:50:37.700Z,28.30
2018-11-13T17:53:07.172Z,39.33
2018-11-13T17:55:35.783Z,35.65
2018-11-13T17:58:07.185Z,38.85
2018-11-13T18:00:39.933Z,43.13
2018-11-13T18:03:09.746Z,51.10
2018-11-13T18:05:38.751Z,54.90
2018-11-13T18:08:08.942Z,54.48
2018-11-13T18:10:38.736Z,77.85
2018-11-13T18:13:07.833Z,64.12
2018-11-13T18:15:36.532Z,77.32
2018-11-13T18:18:05.896Z,57.15
2018-11-13T18:20:35.846Z,45.28
2018-11-13T18:23:04.566Z,44.40
2018-11-13T18:25:33.193Z,53.70
2018-11-13T18:28:02.454Z,47.55
2018-11-13T18:30:32.307Z,50.30
2018-11-13T18:33:01.499Z,53.25
2018-11-13T18:35:31.413Z,51.05
2018-11-13T18:38:01.123Z,50.88
2018-11-13T18:40:29.760Z,53.23
2018-11-13T18:42:59.646Z,55.40
2018-11-13T18:45:30.286Z,58.15
2018-11-13T18:47:59.037Z,54.65
2018-11-13T18:50:29.249Z,58.52
2018-11-13T18:52:57.615Z,54.85
2018-11-13T18:55:26.248Z,50.08
2018-11-13T18:57:54.883Z,66.02
2018-11-13T19:00:29.817Z,65.90
2018-11-13T19:02:59.194Z,66.00
2018-11-13T19:05:28.086Z,67.30
2018-11-13T19:07:56.864Z,65.12
2018-11-13T19:10:32.568Z,69.00
2018-11-13T19:13:02.245Z,56.33
2018-11-13T19:15:32.236Z,54.83
2018-11-13T19:18:04.281Z,48.45
2018-11-13T19:20:32.926Z,43.05
2018-11-13T19:23:01.566Z,44.30
2018-11-13T19:25:32.001Z,43.48
2018-11-13T19:28:01.134Z,40.92
2018-11-13T19:30:29.797Z,40.17
2018-11-13T19:32:58.425Z,43.50
2018-11-13T19:35:27.280Z,29.15
2018-11-13T19:37:55.824Z,28.38
2018-11-13T19:40:25.929Z,28.73
2018-11-13T19:42:55.368Z,27.05
2018-11-13T19:45:24.002Z,14.58
2018-11-13T19:47:52.605Z,10.70
2018-11-13T19:50:25.762Z,14.43
2018-11-13T19:52:54.318Z,7.58
2018-11-13T19:55:23.997Z,6.20
2018-11-13T19:57:52.589Z,6.75
2018-11-13T20:00:37.657Z,6.92
2018-11-13T20:03:07.768Z,3.92
2018-11-13T20:05:36.388Z,6.08
2018-11-13T20:08:05.691Z,6.22
2018-11-13T20:10:35.025Z,4.15
2018-11-13T20:13:04.802Z,3.42
2018-11-13T20:15:34.099Z,4.53
2018-11-13T20:18:02.663Z,3.85
2018-11-13T20:20:32.193Z,3.40
2018-11-13T20:23:02.021Z,2.65
2018-11-13T20:25:31.832Z,3.72
2018-11-13T20:28:00.397Z,4.62
2018-11-13T20:30:34.444Z,2.50
2018-11-13T20:33:03.260Z,5.00
2018-11-13T20:35:31.916Z,3.70
2018-11-13T20:38:00.880Z,2.22
2018-11-13T20:40:30.659Z,5.67
2018-11-13T20:43:00.723Z,2.30
2018-11-13T20:45:29.331Z,1.90
2018-11-13T20:47:57.872Z,9.08
2018-11-13T20:50:27.921Z,3.02
2018-11-13T20:52:56.478Z,2.60
2018-11-13T20:55:25.033Z,2.55
2018-11-13T20:57:53.607Z,2.00
2018-11-13T21:00:23.429Z,2.33
2018-11-13T21:02:51.987Z,2.33
2018-11-13T21:05:20.547Z,4.85
2018-11-13T21:07:49.161Z,2.42
2018-11-13T21:10:19.244Z,3.95
2018-11-13T21:15:14.692Z,2.70
2018-11-13T21:17:43.286Z,2.15
2018-11-13T21:20:14.036Z,1.92
2018-11-13T21:22:42.643Z,4.90
2018-11-13T21:25:12.490Z,2.22
2018-11-13T21:27:41.406Z,2.65
2018-11-13T21:30:12.087Z,2.90
2018-11-13T21:32:40.870Z,2.15
2018-11-13T21:35:10.155Z,5.47
2018-11-13T21:37:38.940Z,6.33
2018-11-13T21:40:08.175Z,5.20
2018-11-13T21:42:36.747Z,2.75
2018-11-13T21:45:06.167Z,3.50
2018-11-13T21:47:34.776Z,2.02
2018-11-13T21:50:03.497Z,7.58
2018-11-13T21:52:32.009Z,1.70
2018-11-13T21:55:00.551Z,2.00
2018-11-13T21:57:29.102Z,4.20
2018-11-13T21:59:57.717Z,2.62
2018-11-13T22:02:26.364Z,3.30
2018-11-13T22:04:54.975Z,2.80
2018-11-13T22:07:23.595Z,2.75
2018-11-13T22:09:52.157Z,3.35
2018-11-13T22:12:20.719Z,2.83
2018-11-13T22:14:49.268Z,3.17
2018-11-13T22:17:17.957Z,4.40
2018-11-13T22:19:46.544Z,4.45
2018-11-13T22:22:15.129Z,5.30
2018-11-13T22:24:43.669Z,3.42
2018-11-13T22:27:12.525Z,2.65
2018-11-13T22:29:41.042Z,3.05
2018-11-13T22:32:09.585Z,4.50
2018-11-13T22:34:38.134Z,3.25
2018-11-13T22:37:06.745Z,4.90
2018-11-13T22:39:35.381Z,3.55
2018-11-13T22:42:03.925Z,8.33
2018-11-13T22:44:32.495Z,4.12
2018-11-13T22:47:01.039Z,5.15
2018-11-13T22:49:29.591Z,4.15
2018-11-13T22:51:58.324Z,5.10
2018-11-13T22:54:26.914Z,7.67
2018-11-13T22:56:55.457Z,7.75
2018-11-13T22:59:24.088Z,4.20
2018-11-13T23:01:52.671Z,7.40
2018-11-13T23:04:21.259Z,5.92
2018-11-13T23:06:49.773Z,4.17
2018-11-13T23:09:18.295Z,3.77
2018-11-13T23:11:46.866Z,23.27
2018-11-13T23:14:15.401Z,15.38
2018-11-13T23:16:44.000Z,4.65
2018-11-13T23:19:12.575Z,5.65
2018-11-13T23:21:41.103Z,3.05
2018-11-13T23:24:09.649Z,5.90
2018-11-13T23:26:38.212Z,5.50
2018-11-13T23:29:06.806Z,5.17
2018-11-13T23:31:35.368Z,9.88
2018-11-13T23:34:03.935Z,7.45
2018-11-13T23:36:32.458Z,4.65
2018-11-13T23:39:01.009Z,11.93
2018-11-13T23:41:29.558Z,4.25
2018-11-13T23:43:58.126Z,4.22
2018-11-13T23:46:26.669Z,3.62
2018-11-13T23:48:55.247Z,7.58
2018-11-13T23:51:23.775Z,6.95
2018-11-13T23:53:52.458Z,3.83
2018-11-13T23:56:20.951Z,7.15
2018-11-13T23:58:49.500Z,7.83
